createdAt,value
2022-07-28T00:09:53.572Z,1.90
2022-07-28T00:20:00.863Z,1.67
2022-07-28T00:30:07.190Z,1.75
2022-07-28T00:40:15.181Z,1.77
2022-07-28T00:50:22.579Z,1.83
2022-07-28T01:00:24.742Z,1.85
2022-07-28T01:10:51.489Z,1.85
2022-07-28T01:21:05.585Z,1.70
2022-07-28T01:31:09.479Z,1.92
2022-07-28T01:41:19.892Z,1.85
2022-07-28T01:51:24.050Z,1.70
2022-07-28T02:01:27.952Z,1.75
2022-07-28T02:11:40.343Z,1.80
2022-07-28T02:21:47.888Z,1.60
2022-07-28T02:31:53.227Z,2.10
2022-07-28T02:42:05.602Z,2.00
2022-07-28T02:52:09.430Z,1.98
2022-07-28T03:02:12.237Z,2.60
2022-07-28T03:12:14.476Z,3.17
2022-07-28T03:22:18.805Z,3.08
2022-07-28T03:32:22.175Z,2.88
2022-07-28T03:42:26.968Z,2.88
2022-07-28T03:52:29.030Z,2.75
2022-07-28T04:02:31.111Z,2.85
2022-07-28T04:12:50.062Z,2.70
2022-07-28T04:22:55.975Z,2.53
2022-07-28T04:32:58.170Z,2.25
2022-07-28T04:43:00.295Z,1.92
2022-07-28T04:53:03.564Z,2.28
2022-07-28T05:03:05.676Z,2.92
2022-07-28T05:13:11.255Z,1.90
2022-07-28T05:23:13.536Z,1.50
2022-07-28T05:33:16.626Z,2.38
2022-07-28T05:43:21.390Z,2.00
2022-07-28T05:53:27.181Z,2.20
2022-07-28T06:03:32.185Z,2.10
2022-07-28T06:13:39.945Z,2.75
2022-07-28T06:23:46.403Z,1.90
2022-07-28T06:33:52.809Z,2.00
2022-07-28T06:43:55.572Z,1.30
2022-07-28T06:54:01.725Z,1.48
2022-07-28T07:04:04.307Z,1.30
2022-07-28T07:14:09.044Z,1.60
2022-07-28T07:24:16.628Z,1.50
2022-07-28T07:34:19.000Z,1.70
2022-07-28T07:44:21.700Z,1.65
2022-07-28T07:54:26.279Z,1.95
2022-07-28T08:04:31.349Z,1.70
2022-07-28T08:14:35.758Z,1.88
2022-07-28T08:24:42.080Z,1.55
2022-07-28T08:34:46.330Z,1.67
2022-07-28T08:45:05.401Z,1.50
2022-07-28T08:55:10.939Z,2.15
2022-07-28T09:05:16.236Z,1.45
2022-07-28T09:15:20.687Z,1.70
2022-07-28T09:25:26.748Z,1.50
2022-07-28T09:35:32.582Z,2.05
2022-07-28T09:45:35.175Z,1.25
2022-07-28T09:55:55.215Z,1.42
2022-07-28T10:05:59.381Z,1.20
2022-07-28T10:16:11.011Z,1.50
2022-07-28T10:26:17.820Z,1.33
2022-07-28T10:36:24.167Z,1.63
2022-07-28T10:46:30.399Z,1.48
2022-07-28T10:56:34.547Z,1.85
2022-07-28T11:06:46.268Z,1.70
2022-07-28T11:16:48.423Z,1.30
2022-07-28T11:27:03.923Z,1.40
2022-07-28T11:37:13.383Z,1.25
2022-07-28T11:47:19.032Z,1.40
2022-07-28T11:57:26.175Z,1.17
2022-07-28T12:07:41.274Z,1.10
2022-07-28T12:17:46.015Z,1.00
2022-07-28T12:27:48.690Z,0.80
2022-07-28T12:37:52.751Z,1.30
2022-07-28T12:47:57.189Z,1.10
2022-07-28T12:58:08.263Z,1.38
2022-07-28T13:08:17.299Z,0.90
2022-07-28T13:18:39.327Z,1.05
2022-07-28T13:28:44.485Z,1.55
2022-07-28T13:38:48.010Z,1.00
2022-07-28T13:48:58.171Z,1.13
2022-07-28T13:59:02.302Z,1.17
2022-07-28T14:09:05.113Z,0.90
2022-07-28T14:19:23.494Z,1.02
2022-07-28T14:29:41.125Z,1.58
2022-07-28T14:39:43.311Z,1.20
2022-07-28T14:49:57.763Z,1.40
2022-07-28T15:00:07.804Z,1.17
2022-07-28T15:10:10.779Z,1.20
2022-07-28T15:20:15.240Z,1.40
2022-07-28T15:30:17.345Z,1.10
2022-07-28T15:40:20.662Z,1.38
2022-07-28T15:50:25.795Z,2.17
2022-07-28T16:00:30.961Z,1.58
2022-07-28T16:10:33.302Z,1.70
2022-07-28T16:20:35.520Z,1.42
2022-07-28T16:30:42.453Z,1.52
2022-07-28T16:40:44.860Z,1.48
2022-07-28T16:50:51.432Z,1.60
2022-07-28T17:00:58.096Z,1.40
2022-07-28T17:11:04.221Z,1.30
2022-07-28T17:21:06.383Z,1.30
2022-07-28T17:31:09.509Z,1.40
2022-07-28T17:41:11.631Z,1.70
2022-07-28T17:51:16.172Z,1.73
2022-07-28T18:01:18.813Z,1.83
2022-07-28T18:11:23.320Z,1.92
2022-07-28T18:21:27.914Z,2.65
2022-07-28T18:31:32.512Z,2.88
2022-07-28T18:41:47.349Z,1.85
2022-07-28T18:51:51.432Z,2.22
2022-07-28T19:01:54.601Z,2.15
2022-07-28T19:11:57.934Z,2.38
2022-07-28T19:22:02.462Z,2.05
2022-07-28T19:32:04.964Z,2.00
2022-07-28T19:42:11.552Z,1.98
2022-07-28T19:52:16.727Z,2.75
2022-07-28T20:02:25.042Z,2.42
2022-07-28T20:12:35.801Z,2.35
2022-07-28T20:22:41.819Z,2.03
2022-07-28T20:32:46.700Z,1.83
2022-07-28T20:42:53.631Z,2.22
2022-07-28T20:53:00.219Z,2.03
2022-07-28T21:03:12.283Z,2.08
2022-07-28T21:13:17.400Z,2.60
2022-07-28T21:23:21.676Z,2.83
2022-07-28T21:33:25.386Z,1.75
2022-07-28T21:43:29.968Z,1.98
2022-07-28T21:53:36.521Z,3.05
2022-07-28T22:03:40.127Z,2.60
2022-07-28T22:13:42.429Z,3.58
2022-07-28T22:23:46.856Z,4.30
2022-07-28T22:33:51.288Z,4.60
2022-07-28T22:43:53.365Z,3.50
2022-07-28T22:53:57.461Z,4.65
2022-07-28T23:03:59.772Z,3.70
2022-07-28T23:14:09.740Z,3.15
2022-07-28T23:24:21.100Z,3.50
2022-07-28T23:34:24.128Z,3.00
2022-07-28T23:44:29.318Z,3.00
2022-07-28T23:54:40.723Z,3.20
